sensor_id;sensor_type;location;lat;lon;timestamp;temperature;humidity
39815;DHT22;25495;45.948;4.568;2023-02-15T00:00:22;6.30;93.20
39815;DHT22;25495;45.948;4.568;2023-02-15T00:02:48;6.30;93.30
39815;DHT22;25495;45.948;4.568;2023-02-15T00:05:14;6.30;93.40
39815;DHT22;25495;45.948;4.568;2023-02-15T00:07:40;6.30;93.20
39815;DHT22;25495;45.948;4.568;2023-02-15T00:10:06;6.30;93.10
39815;DHT22;25495;45.948;4.568;2023-02-15T00:12:32;6.30;93.10
39815;DHT22;25495;45.948;4.568;2023-02-15T00:14:58;6.20;93.00
39815;DHT22;25495;45.948;4.568;2023-02-15T00:17:26;6.20;92.80
39815;DHT22;25495;45.948;4.568;2023-02-15T00:19:52;6.30;92.30
39815;DHT22;25495;45.948;4.568;2023-02-15T00:22:17;6.30;91.60
39815;DHT22;25495;45.948;4.568;2023-02-15T00:24:43;6.30;91.40
39815;DHT22;25495;45.948;4.568;2023-02-15T00:27:09;5.90;91.80
39815;DHT22;25495;45.948;4.568;2023-02-15T00:29:35;6.00;92.90
39815;DHT22;25495;45.948;4.568;2023-02-15T00:32:00;5.90;93.00
39815;DHT22;25495;45.948;4.568;2023-02-15T00:34:27;6.10;92.50
39815;DHT22;25495;45.948;4.568;2023-02-15T00:36:54;6.10;92.30
39815;DHT22;25495;45.948;4.568;2023-02-15T00:39:19;6.10;91.80
39815;DHT22;25495;45.948;4.568;2023-02-15T00:41:46;6.20;91.20
39815;DHT22;25495;45.948;4.568;2023-02-15T00:44:12;6.10;91.60
39815;DHT22;25495;45.948;4.568;2023-02-15T00:46:39;5.80;91.40
39815;DHT22;25495;45.948;4.568;2023-02-15T00:49:05;5.90;91.70
39815;DHT22;25495;45.948;4.568;2023-02-15T00:51:31;5.60;91.90
39815;DHT22;25495;45.948;4.568;2023-02-15T00:53:58;5.70;92.60
39815;DHT22;25495;45.948;4.568;2023-02-15T00:56:23;5.60;92.90
39815;DHT22;25495;45.948;4.568;2023-02-15T00:58:49;5.50;93.20
39815;DHT22;25495;45.948;4.568;2023-02-15T01:01:17;5.60;93.30
39815;DHT22;25495;45.948;4.568;2023-02-15T01:03:44;5.40;93.30
39815;DHT22;25495;45.948;4.568;2023-02-15T01:06:13;5.30;92.90
39815;DHT22;25495;45.948;4.568;2023-02-15T01:08:38;4.90;93.40
39815;DHT22;25495;45.948;4.568;2023-02-15T01:11:07;4.90;93.50
39815;DHT22;25495;45.948;4.568;2023-02-15T01:13:34;4.90;93.80
39815;DHT22;25495;45.948;4.568;2023-02-15T01:16:00;5.20;94.10
39815;DHT22;25495;45.948;4.568;2023-02-15T01:18:26;5.40;93.80
39815;DHT22;25495;45.948;4.568;2023-02-15T01:20:52;5.50;93.60
39815;DHT22;25495;45.948;4.568;2023-02-15T01:23:18;5.50;93.50
39815;DHT22;25495;45.948;4.568;2023-02-15T01:25:44;5.40;93.40
39815;DHT22;25495;45.948;4.568;2023-02-15T01:28:10;5.30;93.90
39815;DHT22;25495;45.948;4.568;2023-02-15T01:30:36;5.30;93.40
39815;DHT22;25495;45.948;4.568;2023-02-15T01:33:02;5.10;94.00
39815;DHT22;25495;45.948;4.568;2023-02-15T01:35:28;5.10;94.30
39815;DHT22;25495;45.948;4.568;2023-02-15T01:37:55;5.30;94.20
39815;DHT22;25495;45.948;4.568;2023-02-15T01:40:22;5.30;94.10
39815;DHT22;25495;45.948;4.568;2023-02-15T01:42:53;5.00;93.90
39815;DHT22;25495;45.948;4.568;2023-02-15T01:45:31;5.00;93.90
39815;DHT22;25495;45.948;4.568;2023-02-15T01:50:34;5.30;93.40
39815;DHT22;25495;45.948;4.568;2023-02-15T01:56:00;5.60;93.20
39815;DHT22;25495;45.948;4.568;2023-02-15T01:58:28;5.50;93.20
39815;DHT22;25495;45.948;4.568;2023-02-15T02:00:57;5.50;93.00
39815;DHT22;25495;45.948;4.568;2023-02-15T02:06:14;5.60;92.80
39815;DHT22;25495;45.948;4.568;2023-02-15T02:08:42;5.60;93.30
39815;DHT22;25495;45.948;4.568;2023-02-15T02:11:12;5.60;93.50
39815;DHT22;25495;45.948;4.568;2023-02-15T02:13:43;5.60;93.50
39815;DHT22;25495;45.948;4.568;2023-02-15T02:16:24;5.50;93.60
39815;DHT22;25495;45.948;4.568;2023-02-15T02:25:02;4.70;94.60
39815;DHT22;25495;45.948;4.568;2023-02-15T02:27:50;4.50;93.80
39815;DHT22;25495;45.948;4.568;2023-02-15T02:33:31;4.40;92.30
39815;DHT22;25495;45.948;4.568;2023-02-15T02:36:14;4.40;91.90
39815;DHT22;25495;45.948;4.568;2023-02-15T02:39:06;4.50;91.70
39815;DHT22;25495;45.948;4.568;2023-02-15T02:44:22;4.60;91.90
39815;DHT22;25495;45.948;4.568;2023-02-15T02:49:15;4.80;92.60
39815;DHT22;25495;45.948;4.568;2023-02-15T02:51:41;4.80;92.10
39815;DHT22;25495;45.948;4.568;2023-02-15T02:54:07;4.70;92.70
39815;DHT22;25495;45.948;4.568;2023-02-15T02:56:44;4.50;92.70
39815;DHT22;25495;45.948;4.568;2023-02-15T02:59:19;4.40;92.90
39815;DHT22;25495;45.948;4.568;2023-02-15T03:02:10;4.30;92.90
39815;DHT22;25495;45.948;4.568;2023-02-15T03:04:43;4.50;93.10
39815;DHT22;25495;45.948;4.568;2023-02-15T03:07:15;4.60;93.70
39815;DHT22;25495;45.948;4.568;2023-02-15T03:09:51;4.70;94.60
39815;DHT22;25495;45.948;4.568;2023-02-15T03:12:22;4.70;95.00
39815;DHT22;25495;45.948;4.568;2023-02-15T03:14:52;4.50;95.30
39815;DHT22;25495;45.948;4.568;2023-02-15T03:17:22;4.70;95.50
39815;DHT22;25495;45.948;4.568;2023-02-15T03:19:51;4.80;95.80
39815;DHT22;25495;45.948;4.568;2023-02-15T03:22:26;4.70;95.70
39815;DHT22;25495;45.948;4.568;2023-02-15T03:25:02;4.70;96.90
39815;DHT22;25495;45.948;4.568;2023-02-15T03:27:44;4.70;97.20
39815;DHT22;25495;45.948;4.568;2023-02-15T03:30:13;4.60;97.20
39815;DHT22;25495;45.948;4.568;2023-02-15T03:32:40;4.60;98.10
39815;DHT22;25495;45.948;4.568;2023-02-15T03:35:07;4.70;99.90
39815;DHT22;25495;45.948;4.568;2023-02-15T03:37:50;4.60;99.90
39815;DHT22;25495;45.948;4.568;2023-02-15T03:40:22;4.60;99.90
39815;DHT22;25495;45.948;4.568;2023-02-15T03:45:59;4.50;99.90
39815;DHT22;25495;45.948;4.568;2023-02-15T03:49:17;4.50;99.90
39815;DHT22;25495;45.948;4.568;2023-02-15T03:51:40;4.50;99.90
39815;DHT22;25495;45.948;4.568;2023-02-15T03:54:21;4.40;99.90
39815;DHT22;25495;45.948;4.568;2023-02-15T03:59:58;4.30;99.90
39815;DHT22;25495;45.948;4.568;2023-02-15T04:03:08;4.30;99.90
39815;DHT22;25495;45.948;4.568;2023-02-15T04:05:35;4.20;99.90
39815;DHT22;25495;45.948;4.568;2023-02-15T04:08:01;4.20;99.90
39815;DHT22;25495;45.948;4.568;2023-02-15T04:10:27;4.20;99.90
39815;DHT22;25495;45.948;4.568;2023-02-15T04:13:11;4.20;99.90
39815;DHT22;25495;45.948;4.568;2023-02-15T04:15:37;4.20;99.90
39815;DHT22;25495;45.948;4.568;2023-02-15T04:18:21;4.20;99.90
39815;DHT22;25495;45.948;4.568;2023-02-15T04:20:47;4.20;99.90
39815;DHT22;25495;45.948;4.568;2023-02-15T04:23:31;4.20;99.90
39815;DHT22;25495;45.948;4.568;2023-02-15T04:26:16;4.20;99.90
39815;DHT22;25495;45.948;4.568;2023-02-15T04:28:42;4.20;99.90
39815;DHT22;25495;45.948;4.568;2023-02-15T04:31:07;4.20;99.90
39815;DHT22;25495;45.948;4.568;2023-02-15T04:33:33;4.20;99.90
39815;DHT22;25495;45.948;4.568;2023-02-15T04:36:02;4.20;99.90
39815;DHT22;25495;45.948;4.568;2023-02-15T04:38:28;4.20;99.90
39815;DHT22;25495;45.948;4.568;2023-02-15T04:40:54;4.10;99.90
39815;DHT22;25495;45.948;4.568;2023-02-15T04:43:20;3.80;99.90
39815;DHT22;25495;45.948;4.568;2023-02-15T04:45:50;3.80;99.90
39815;DHT22;25495;45.948;4.568;2023-02-15T04:48:16;3.70;99.90
39815;DHT22;25495;45.948;4.568;2023-02-15T04:50:43;3.80;99.90
39815;DHT22;25495;45.948;4.568;2023-02-15T04:53:09;3.70;99.90
39815;DHT22;25495;45.948;4.568;2023-02-15T04:55:35;3.70;99.90
39815;DHT22;25495;45.948;4.568;2023-02-15T04:58:03;3.60;99.90
39815;DHT22;25495;45.948;4.568;2023-02-15T05:00:29;3.70;99.90
39815;DHT22;25495;45.948;4.568;2023-02-15T05:02:55;3.90;99.90
39815;DHT22;25495;45.948;4.568;2023-02-15T05:05:20;3.80;99.90
39815;DHT22;25495;45.948;4.568;2023-02-15T05:07:46;3.90;99.90
39815;DHT22;25495;45.948;4.568;2023-02-15T05:10:12;3.80;99.90
39815;DHT22;25495;45.948;4.568;2023-02-15T05:12:38;3.80;99.90
39815;DHT22;25495;45.948;4.568;2023-02-15T05:15:04;3.60;99.90
39815;DHT22;25495;45.948;4.568;2023-02-15T05:17:29;3.60;99.90
39815;DHT22;25495;45.948;4.568;2023-02-15T05:19:55;3.60;99.90
39815;DHT22;25495;45.948;4.568;2023-02-15T05:22:21;3.70;99.90
39815;DHT22;25495;45.948;4.568;2023-02-15T05:24:48;3.60;99.90
39815;DHT22;25495;45.948;4.568;2023-02-15T05:27:32;3.60;99.90
39815;DHT22;25495;45.948;4.568;2023-02-15T05:30:16;3.80;99.90
39815;DHT22;25495;45.948;4.568;2023-02-15T05:32:42;3.70;99.90
39815;DHT22;25495;45.948;4.568;2023-02-15T05:35:13;3.70;99.90
39815;DHT22;25495;45.948;4.568;2023-02-15T05:37:40;3.60;99.90
39815;DHT22;25495;45.948;4.568;2023-02-15T05:40:06;3.60;99.90
39815;DHT22;25495;45.948;4.568;2023-02-15T05:42:32;3.30;99.90
39815;DHT22;25495;45.948;4.568;2023-02-15T05:44:58;3.30;99.90
39815;DHT22;25495;45.948;4.568;2023-02-15T05:47:27;3.30;99.90
39815;DHT22;25495;45.948;4.568;2023-02-15T05:49:52;3.30;99.90
39815;DHT22;25495;45.948;4.568;2023-02-15T05:52:18;3.20;99.90
39815;DHT22;25495;45.948;4.568;2023-02-15T05:54:44;3.10;99.90
39815;DHT22;25495;45.948;4.568;2023-02-15T05:57:10;2.90;99.90
39815;DHT22;25495;45.948;4.568;2023-02-15T05:59:35;3.10;99.90
39815;DHT22;25495;45.948;4.568;2023-02-15T06:02:01;3.20;99.90
39815;DHT22;25495;45.948;4.568;2023-02-15T06:04:27;3.00;99.90
39815;DHT22;25495;45.948;4.568;2023-02-15T06:06:53;3.10;99.90
39815;DHT22;25495;45.948;4.568;2023-02-15T06:09:19;2.70;99.90
39815;DHT22;25495;45.948;4.568;2023-02-15T06:11:45;2.60;99.90
39815;DHT22;25495;45.948;4.568;2023-02-15T06:14:11;2.70;99.90
39815;DHT22;25495;45.948;4.568;2023-02-15T06:16:37;3.10;99.90
39815;DHT22;25495;45.948;4.568;2023-02-15T06:19:03;3.10;99.90
39815;DHT22;25495;45.948;4.568;2023-02-15T06:21:32;3.20;99.90
39815;DHT22;25495;45.948;4.568;2023-02-15T06:23:58;3.30;99.90
39815;DHT22;25495;45.948;4.568;2023-02-15T06:26:24;3.40;99.90
39815;DHT22;25495;45.948;4.568;2023-02-15T06:28:50;3.30;99.90
39815;DHT22;25495;45.948;4.568;2023-02-15T06:31:16;3.30;99.90
39815;DHT22;25495;45.948;4.568;2023-02-15T06:33:41;2.60;99.90
39815;DHT22;25495;45.948;4.568;2023-02-15T06:36:07;2.50;99.90
39815;DHT22;25495;45.948;4.568;2023-02-15T06:38:33;2.70;99.90
39815;DHT22;25495;45.948;4.568;2023-02-15T06:40:59;2.40;99.90
39815;DHT22;25495;45.948;4.568;2023-02-15T06:43:25;2.40;99.90
39815;DHT22;25495;45.948;4.568;2023-02-15T06:45:50;2.30;99.90
39815;DHT22;25495;45.948;4.568;2023-02-15T06:48:16;2.30;99.90
39815;DHT22;25495;45.948;4.568;2023-02-15T06:50:42;2.40;99.90
39815;DHT22;25495;45.948;4.568;2023-02-15T06:53:08;2.30;99.90
39815;DHT22;25495;45.948;4.568;2023-02-15T06:55:34;2.30;99.90
39815;DHT22;25495;45.948;4.568;2023-02-15T06:57:59;2.40;99.90
39815;DHT22;25495;45.948;4.568;2023-02-15T07:00:25;2.60;99.90
39815;DHT22;25495;45.948;4.568;2023-02-15T07:02:58;2.60;99.90
39815;DHT22;25495;45.948;4.568;2023-02-15T07:05:27;2.70;99.90
39815;DHT22;25495;45.948;4.568;2023-02-15T07:07:57;2.70;99.90
39815;DHT22;25495;45.948;4.568;2023-02-15T07:10:23;3.00;99.90
39815;DHT22;25495;45.948;4.568;2023-02-15T07:12:49;2.90;99.90
39815;DHT22;25495;45.948;4.568;2023-02-15T07:15:17;2.90;99.90
39815;DHT22;25495;45.948;4.568;2023-02-15T07:17:43;3.00;99.90
39815;DHT22;25495;45.948;4.568;2023-02-15T07:20:14;3.20;99.90
39815;DHT22;25495;45.948;4.568;2023-02-15T07:22:40;3.40;99.90
39815;DHT22;25495;45.948;4.568;2023-02-15T07:25:08;3.60;99.90
39815;DHT22;25495;45.948;4.568;2023-02-15T07:27:35;3.70;99.90
39815;DHT22;25495;45.948;4.568;2023-02-15T07:30:02;3.80;99.90
39815;DHT22;25495;45.948;4.568;2023-02-15T07:32:30;4.00;99.90
39815;DHT22;25495;45.948;4.568;2023-02-15T07:34:56;4.20;99.90
39815;DHT22;25495;45.948;4.568;2023-02-15T07:37:23;4.30;99.90
39815;DHT22;25495;45.948;4.568;2023-02-15T07:39:49;4.40;99.90
39815;DHT22;25495;45.948;4.568;2023-02-15T07:42:15;4.50;99.90
39815;DHT22;25495;45.948;4.568;2023-02-15T07:44:43;4.70;99.90
39815;DHT22;25495;45.948;4.568;2023-02-15T07:47:10;4.90;99.90
39815;DHT22;25495;45.948;4.568;2023-02-15T07:49:36;4.90;99.90
39815;DHT22;25495;45.948;4.568;2023-02-15T07:52:02;5.00;99.90
39815;DHT22;25495;45.948;4.568;2023-02-15T07:54:28;5.40;99.90
39815;DHT22;25495;45.948;4.568;2023-02-15T07:56:54;5.50;99.90
39815;DHT22;25495;45.948;4.568;2023-02-15T07:59:21;5.50;99.90
39815;DHT22;25495;45.948;4.568;2023-02-15T08:01:47;5.50;99.90
39815;DHT22;25495;45.948;4.568;2023-02-15T08:04:13;5.80;99.90
39815;DHT22;25495;45.948;4.568;2023-02-15T08:06:39;5.90;99.90
39815;DHT22;25495;45.948;4.568;2023-02-15T08:09:07;5.40;99.90
39815;DHT22;25495;45.948;4.568;2023-02-15T08:11:35;5.20;99.90
39815;DHT22;25495;45.948;4.568;2023-02-15T08:16:54;4.80;99.90
39815;DHT22;25495;45.948;4.568;2023-02-15T08:19:31;4.90;99.90
39815;DHT22;25495;45.948;4.568;2023-02-15T08:22:03;5.00;99.90
39815;DHT22;25495;45.948;4.568;2023-02-15T08:24:32;5.10;99.90
39815;DHT22;25495;45.948;4.568;2023-02-15T08:26:58;6.20;99.90
39815;DHT22;25495;45.948;4.568;2023-02-15T08:29:26;6.40;99.90
39815;DHT22;25495;45.948;4.568;2023-02-15T08:31:55;6.60;99.90
39815;DHT22;25495;45.948;4.568;2023-02-15T08:36:50;7.10;99.90
39815;DHT22;25495;45.948;4.568;2023-02-15T08:39:16;7.10;99.90
39815;DHT22;25495;45.948;4.568;2023-02-15T08:41:44;7.20;99.90
39815;DHT22;25495;45.948;4.568;2023-02-15T08:44:10;7.40;99.90
39815;DHT22;25495;45.948;4.568;2023-02-15T08:46:38;7.50;99.90
39815;DHT22;25495;45.948;4.568;2023-02-15T08:49:05;7.30;99.90
39815;DHT22;25495;45.948;4.568;2023-02-15T08:51:36;7.50;99.90
39815;DHT22;25495;45.948;4.568;2023-02-15T08:54:05;7.30;99.90
39815;DHT22;25495;45.948;4.568;2023-02-15T08:56:39;7.40;99.90
39815;DHT22;25495;45.948;4.568;2023-02-15T08:59:07;7.20;99.90
39815;DHT22;25495;45.948;4.568;2023-02-15T09:01:36;7.40;99.90
39815;DHT22;25495;45.948;4.568;2023-02-15T09:04:04;8.00;99.90
39815;DHT22;25495;45.948;4.568;2023-02-15T09:06:32;8.10;99.90
39815;DHT22;25495;45.948;4.568;2023-02-15T09:08:59;7.80;99.90
39815;DHT22;25495;45.948;4.568;2023-02-15T09:11:33;7.60;99.90
39815;DHT22;25495;45.948;4.568;2023-02-15T09:14:03;7.70;99.90
39815;DHT22;25495;45.948;4.568;2023-02-15T09:16:32;8.00;99.90
39815;DHT22;25495;45.948;4.568;2023-02-15T09:19:01;8.20;99.90
39815;DHT22;25495;45.948;4.568;2023-02-15T09:21:30;8.30;99.90
39815;DHT22;25495;45.948;4.568;2023-02-15T09:24:07;8.50;99.90
39815;DHT22;25495;45.948;4.568;2023-02-15T09:26:37;8.70;99.90
39815;DHT22;25495;45.948;4.568;2023-02-15T09:29:06;8.80;99.90
39815;DHT22;25495;45.948;4.568;2023-02-15T09:31:42;8.70;99.90
39815;DHT22;25495;45.948;4.568;2023-02-15T09:34:12;8.50;99.90
39815;DHT22;25495;45.948;4.568;2023-02-15T09:36:42;8.60;99.90
39815;DHT22;25495;45.948;4.568;2023-02-15T09:42:15;8.20;99.90
39815;DHT22;25495;45.948;4.568;2023-02-15T09:45:23;8.40;99.90
39815;DHT22;25495;45.948;4.568;2023-02-15T10:00:10;8.50;99.90
39815;DHT22;25495;45.948;4.568;2023-02-15T10:18:25;8.50;99.90
39815;DHT22;25495;45.948;4.568;2023-02-15T10:26:46;9.10;99.90
39815;DHT22;25495;45.948;4.568;2023-02-15T10:29:38;9.30;99.90
39815;DHT22;25495;45.948;4.568;2023-02-15T10:32:16;9.30;99.90
39815;DHT22;25495;45.948;4.568;2023-02-15T10:34:52;9.40;99.90
39815;DHT22;25495;45.948;4.568;2023-02-15T10:40:28;9.90;99.90
39815;DHT22;25495;45.948;4.568;2023-02-15T10:45:58;9.90;99.90
39815;DHT22;25495;45.948;4.568;2023-02-15T10:57:04;10.50;99.90
39815;DHT22;25495;45.948;4.568;2023-02-15T11:05:31;11.00;99.90
39815;DHT22;25495;45.948;4.568;2023-02-15T11:08:00;10.70;99.90
39815;DHT22;25495;45.948;4.568;2023-02-15T11:13:17;11.10;99.90
39815;DHT22;25495;45.948;4.568;2023-02-15T11:16:07;11.00;99.90
39815;DHT22;25495;45.948;4.568;2023-02-15T11:18:41;11.30;99.90
39815;DHT22;25495;45.948;4.568;2023-02-15T11:21:32;11.50;99.90
39815;DHT22;25495;45.948;4.568;2023-02-15T11:24:14;11.50;99.90
39815;DHT22;25495;45.948;4.568;2023-02-15T11:26:45;11.30;99.90
39815;DHT22;25495;45.948;4.568;2023-02-15T11:29:19;11.30;99.90
39815;DHT22;25495;45.948;4.568;2023-02-15T11:32:03;11.40;99.90
39815;DHT22;25495;45.948;4.568;2023-02-15T11:34:40;11.40;99.90
39815;DHT22;25495;45.948;4.568;2023-02-15T11:37:17;11.50;99.90
39815;DHT22;25495;45.948;4.568;2023-02-15T11:39:43;11.50;99.90
39815;DHT22;25495;45.948;4.568;2023-02-15T11:42:15;11.50;99.90
39815;DHT22;25495;45.948;4.568;2023-02-15T11:45:18;11.60;99.90
39815;DHT22;25495;45.948;4.568;2023-02-15T11:47:46;11.20;99.90
39815;DHT22;25495;45.948;4.568;2023-02-15T11:50:19;11.40;99.90
39815;DHT22;25495;45.948;4.568;2023-02-15T11:53:01;11.70;99.90
39815;DHT22;25495;45.948;4.568;2023-02-15T11:55:32;11.60;99.90
39815;DHT22;25495;45.948;4.568;2023-02-15T12:03:29;11.60;99.90
39815;DHT22;25495;45.948;4.568;2023-02-15T12:06:04;11.70;99.90
39815;DHT22;25495;45.948;4.568;2023-02-15T12:08:43;11.70;99.90
39815;DHT22;25495;45.948;4.568;2023-02-15T12:11:43;11.60;99.90
39815;DHT22;25495;45.948;4.568;2023-02-15T12:14:11;11.90;99.90
39815;DHT22;25495;45.948;4.568;2023-02-15T12:16:49;12.20;99.90
39815;DHT22;25495;45.948;4.568;2023-02-15T12:19:32;12.40;99.90
39815;DHT22;25495;45.948;4.568;2023-02-15T12:22:00;12.50;99.90
39815;DHT22;25495;45.948;4.568;2023-02-15T12:24:36;12.30;99.90
39815;DHT22;25495;45.948;4.568;2023-02-15T12:27:14;12.30;99.90
39815;DHT22;25495;45.948;4.568;2023-02-15T12:29:43;12.10;99.90
39815;DHT22;25495;45.948;4.568;2023-02-15T12:32:17;11.50;99.90
39815;DHT22;25495;45.948;4.568;2023-02-15T12:34:44;11.50;99.90
39815;DHT22;25495;45.948;4.568;2023-02-15T12:37:21;11.50;99.90
39815;DHT22;25495;45.948;4.568;2023-02-15T12:39:54;11.50;99.90
39815;DHT22;25495;45.948;4.568;2023-02-15T12:42:21;11.40;99.90
39815;DHT22;25495;45.948;4.568;2023-02-15T12:45:02;11.40;99.90
39815;DHT22;25495;45.948;4.568;2023-02-15T12:47:29;11.30;99.10
39815;DHT22;25495;45.948;4.568;2023-02-15T12:50:23;11.30;99.90
39815;DHT22;25495;45.948;4.568;2023-02-15T12:52:50;11.40;99.90
39815;DHT22;25495;45.948;4.568;2023-02-15T12:55:35;11.10;99.10
39815;DHT22;25495;45.948;4.568;2023-02-15T12:58:24;11.00;99.20
39815;DHT22;25495;45.948;4.568;2023-02-15T13:03:36;11.10;99.70
39815;DHT22;25495;45.948;4.568;2023-02-15T13:06:04;11.10;99.80
39815;DHT22;25495;45.948;4.568;2023-02-15T13:08:53;11.20;99.00
39815;DHT22;25495;45.948;4.568;2023-02-15T13:11:31;11.20;99.80
39815;DHT22;25495;45.948;4.568;2023-02-15T13:14:19;11.40;99.90
39815;DHT22;25495;45.948;4.568;2023-02-15T13:16:48;11.50;99.90
39815;DHT22;25495;45.948;4.568;2023-02-15T13:19:37;11.50;99.90
39815;DHT22;25495;45.948;4.568;2023-02-15T13:22:10;11.70;99.90
39815;DHT22;25495;45.948;4.568;2023-02-15T13:24:40;11.70;99.90
39815;DHT22;25495;45.948;4.568;2023-02-15T13:27:19;11.90;99.90
39815;DHT22;25495;45.948;4.568;2023-02-15T13:29:49;12.20;99.90
39815;DHT22;25495;45.948;4.568;2023-02-15T13:34:59;12.30;99.90
39815;DHT22;25495;45.948;4.568;2023-02-15T13:42:45;12.20;98.00
39815;DHT22;25495;45.948;4.568;2023-02-15T13:48:20;12.00;98.00
39815;DHT22;25495;45.948;4.568;2023-02-15T13:51:04;12.10;99.40
39815;DHT22;25495;45.948;4.568;2023-02-15T13:59:39;11.90;97.50
39815;DHT22;25495;45.948;4.568;2023-02-15T14:07:43;12.20;99.90
39815;DHT22;25495;45.948;4.568;2023-02-15T14:10:39;12.20;97.20
39815;DHT22;25495;45.948;4.568;2023-02-15T14:13:39;12.30;98.70
39815;DHT22;25495;45.948;4.568;2023-02-15T14:16:16;12.40;98.70
39815;DHT22;25495;45.948;4.568;2023-02-15T14:19:10;12.30;99.10
39815;DHT22;25495;45.948;4.568;2023-02-15T14:21:48;12.30;99.20
39815;DHT22;25495;45.948;4.568;2023-02-15T14:29:53;12.30;99.70
39815;DHT22;25495;45.948;4.568;2023-02-15T14:32:56;12.30;97.90
39815;DHT22;25495;45.948;4.568;2023-02-15T14:35:28;12.30;97.90
39815;DHT22;25495;45.948;4.568;2023-02-15T14:37:58;12.20;97.30
39815;DHT22;25495;45.948;4.568;2023-02-15T14:45:54;12.30;96.60
39815;DHT22;25495;45.948;4.568;2023-02-15T14:48:45;12.30;95.40
39815;DHT22;25495;45.948;4.568;2023-02-15T15:02:44;12.40;95.20
39815;DHT22;25495;45.948;4.568;2023-02-15T15:05:32;12.60;97.90
39815;DHT22;25495;45.948;4.568;2023-02-15T15:08:01;12.60;98.00
39815;DHT22;25495;45.948;4.568;2023-02-15T15:10:38;12.60;97.90
39815;DHT22;25495;45.948;4.568;2023-02-15T15:16:46;12.50;98.40
39815;DHT22;25495;45.948;4.568;2023-02-15T15:18:48;12.50;98.20
39815;DHT22;25495;45.948;4.568;2023-02-15T15:23:59;12.70;95.30
39815;DHT22;25495;45.948;4.568;2023-02-15T15:26:27;12.80;97.40
39815;DHT22;25495;45.948;4.568;2023-02-15T15:28:54;12.70;96.40
39815;DHT22;25495;45.948;4.568;2023-02-15T15:31:47;12.70;96.80
39815;DHT22;25495;45.948;4.568;2023-02-15T15:34:18;12.90;96.00
39815;DHT22;25495;45.948;4.568;2023-02-15T15:40:27;12.70;95.40
39815;DHT22;25495;45.948;4.568;2023-02-15T15:42:49;12.60;95.30
39815;DHT22;25495;45.948;4.568;2023-02-15T15:45:43;12.40;94.00
39815;DHT22;25495;45.948;4.568;2023-02-15T15:48:41;12.30;93.50
39815;DHT22;25495;45.948;4.568;2023-02-15T15:51:32;12.30;94.00
39815;DHT22;25495;45.948;4.568;2023-02-15T15:53:58;12.20;94.90
39815;DHT22;25495;45.948;4.568;2023-02-15T15:56:29;12.00;95.50
39815;DHT22;25495;45.948;4.568;2023-02-15T15:59:00;12.00;97.20
39815;DHT22;25495;45.948;4.568;2023-02-15T16:01:29;11.70;96.00
39815;DHT22;25495;45.948;4.568;2023-02-15T16:03:58;11.70;97.00
39815;DHT22;25495;45.948;4.568;2023-02-15T16:06:33;11.70;97.20
39815;DHT22;25495;45.948;4.568;2023-02-15T16:09:20;11.60;96.70
39815;DHT22;25495;45.948;4.568;2023-02-15T16:11:52;11.60;97.70
39815;DHT22;25495;45.948;4.568;2023-02-15T16:14:37;11.50;98.00
39815;DHT22;25495;45.948;4.568;2023-02-15T16:17:13;11.50;98.50
39815;DHT22;25495;45.948;4.568;2023-02-15T16:19:43;11.40;98.60
39815;DHT22;25495;45.948;4.568;2023-02-15T16:22:19;11.40;99.50
39815;DHT22;25495;45.948;4.568;2023-02-15T16:25:11;11.30;99.60
39815;DHT22;25495;45.948;4.568;2023-02-15T16:27:44;11.30;99.30
39815;DHT22;25495;45.948;4.568;2023-02-15T16:30:24;11.40;99.20
39815;DHT22;25495;45.948;4.568;2023-02-15T16:35:30;11.30;99.00
39815;DHT22;25495;45.948;4.568;2023-02-15T16:37:55;11.30;99.20
39815;DHT22;25495;45.948;4.568;2023-02-15T16:42:52;11.20;99.10
39815;DHT22;25495;45.948;4.568;2023-02-15T16:45:21;11.10;99.20
39815;DHT22;25495;45.948;4.568;2023-02-15T16:47:51;11.00;98.90
39815;DHT22;25495;45.948;4.568;2023-02-15T16:50:20;10.90;99.00
39815;DHT22;25495;45.948;4.568;2023-02-15T16:52:46;11.00;98.60
39815;DHT22;25495;45.948;4.568;2023-02-15T16:55:26;10.90;98.40
39815;DHT22;25495;45.948;4.568;2023-02-15T16:57:57;10.70;99.20
39815;DHT22;25495;45.948;4.568;2023-02-15T17:00:26;10.50;99.90
39815;DHT22;25495;45.948;4.568;2023-02-15T17:05:40;9.80;99.90
39815;DHT22;25495;45.948;4.568;2023-02-15T17:11:12;9.70;99.90
39815;DHT22;25495;45.948;4.568;2023-02-15T17:13:39;9.60;99.90
39815;DHT22;25495;45.948;4.568;2023-02-15T17:18:32;9.60;99.90
39815;DHT22;25495;45.948;4.568;2023-02-15T17:21:08;9.30;99.90
39815;DHT22;25495;45.948;4.568;2023-02-15T17:23:46;9.20;99.90
39815;DHT22;25495;45.948;4.568;2023-02-15T17:26:22;8.90;99.90
39815;DHT22;25495;45.948;4.568;2023-02-15T17:31:39;8.90;99.90
39815;DHT22;25495;45.948;4.568;2023-02-15T17:34:05;9.00;99.90
39815;DHT22;25495;45.948;4.568;2023-02-15T17:36:31;9.10;99.90
39815;DHT22;25495;45.948;4.568;2023-02-15T17:41:31;9.10;99.90
39815;DHT22;25495;45.948;4.568;2023-02-15T17:43:57;9.20;99.90
39815;DHT22;25495;45.948;4.568;2023-02-15T17:46:24;9.60;99.20
39815;DHT22;25495;45.948;4.568;2023-02-15T17:48:52;10.10;99.90
39815;DHT22;25495;45.948;4.568;2023-02-15T17:51:19;10.40;97.90
39815;DHT22;25495;45.948;4.568;2023-02-15T17:53:46;9.90;97.60
39815;DHT22;25495;45.948;4.568;2023-02-15T17:56:34;9.80;97.80
39815;DHT22;25495;45.948;4.568;2023-02-15T17:59:01;9.60;98.00
39815;DHT22;25495;45.948;4.568;2023-02-15T18:01:27;9.50;98.20
39815;DHT22;25495;45.948;4.568;2023-02-15T18:04:13;9.40;98.40
39815;DHT22;25495;45.948;4.568;2023-02-15T18:06:58;9.40;99.90
39815;DHT22;25495;45.948;4.568;2023-02-15T18:09:42;9.30;99.90
39815;DHT22;25495;45.948;4.568;2023-02-15T18:12:32;8.90;99.20
39815;DHT22;25495;45.948;4.568;2023-02-15T18:14:59;8.80;99.90
39815;DHT22;25495;45.948;4.568;2023-02-15T18:17:27;8.90;99.90
39815;DHT22;25495;45.948;4.568;2023-02-15T18:19:54;8.90;99.90
39815;DHT22;25495;45.948;4.568;2023-02-15T18:22:20;8.90;99.90
39815;DHT22;25495;45.948;4.568;2023-02-15T18:24:48;8.60;99.50
39815;DHT22;25495;45.948;4.568;2023-02-15T18:27:15;8.70;99.90
39815;DHT22;25495;45.948;4.568;2023-02-15T18:29:41;8.70;99.90
39815;DHT22;25495;45.948;4.568;2023-02-15T18:32:13;8.90;99.90
39815;DHT22;25495;45.948;4.568;2023-02-15T18:34:41;8.90;99.90
39815;DHT22;25495;45.948;4.568;2023-02-15T18:37:14;9.00;99.90
39815;DHT22;25495;45.948;4.568;2023-02-15T18:39:50;8.90;99.90
39815;DHT22;25495;45.948;4.568;2023-02-15T18:42:32;8.90;99.90
39815;DHT22;25495;45.948;4.568;2023-02-15T18:45:16;8.90;99.90
39815;DHT22;25495;45.948;4.568;2023-02-15T18:47:44;8.80;99.90
39815;DHT22;25495;45.948;4.568;2023-02-15T18:52:37;8.40;99.90
39815;DHT22;25495;45.948;4.568;2023-02-15T18:55:15;8.50;99.90
39815;DHT22;25495;45.948;4.568;2023-02-15T18:57:42;8.50;99.90
39815;DHT22;25495;45.948;4.568;2023-02-15T19:00:18;8.50;99.90
39815;DHT22;25495;45.948;4.568;2023-02-15T19:02:45;8.50;99.90
39815;DHT22;25495;45.948;4.568;2023-02-15T19:05:11;8.60;99.90
39815;DHT22;25495;45.948;4.568;2023-02-15T19:07:38;8.70;99.90